Time;durP1;ratioP1;P1;durP2;ratioP2;P2;SDS_P1;SDS_P2;PMS_P1;PMS_P2;Temp;Humidity;BMP_temperature;BMP_pressure;BME280_temperature;BME280_humidity;BME280_pressure;Samples;Min_cycle;Max_cycle;Signal;HPM_P1;HPM_P2
2023/06/17 04:00:40;;;;;;;5.20;3.00;;;14.50;97.30;;;;;;6037384;23;20378;31
2023/06/17 04:03:06;;;;;;;3.00;2.33;;;14.60;97.30;;;;;;4899638;29;20560;-84
2023/06/17 04:05:32;;;;;;;4.87;3.20;;;14.60;97.30;;;;;;4890986;29;20807;-85
2023/06/17 04:07:59;;;;;;;3.80;3.60;;;14.60;97.30;;;;;;4890834;29;20182;-82
2023/06/17 04:10:26;;;;;;;4.07;3.67;;;14.60;97.30;;;;;;4893321;29;20457;-82
2023/06/17 04:12:51;;;;;;;5.23;2.70;;;14.60;97.30;;;;;;4911175;29;20791;-82
2023/06/17 04:15:17;;;;;;;6.70;4.20;;;14.60;97.30;;;;;;4910055;29;20413;-84
2023/06/17 04:17:43;;;;;;;3.67;3.30;;;14.60;97.30;;;;;;4902292;29;20173;-82
2023/06/17 04:20:12;;;;;;;5.93;3.33;;;14.60;97.30;;;;;;4911844;29;20187;-82
2023/06/17 04:22:41;;;;;;;4.90;3.73;;;14.60;97.30;;;;;;4922031;29;20213;-85
2023/06/17 04:25:10;;;;;;;3.67;3.23;;;14.50;97.30;;;;;;4920413;29;20452;-82
2023/06/17 04:27:36;;;;;;;8.43;4.33;;;14.60;97.30;;;;;;4909053;29;20429;-84
2023/06/17 04:30:07;;;;;;;8.20;4.47;;;14.60;97.30;;;;;;4907558;29;20495;-84
2023/06/17 04:32:34;;;;;;;4.40;4.10;;;14.60;97.30;;;;;;4908401;29;20468;-84
2023/06/17 04:35:03;;;;;;;3.80;2.97;;;14.60;97.30;;;;;;4910004;29;20455;-83
2023/06/17 04:37:29;;;;;;;5.47;4.40;;;14.70;97.30;;;;;;4909232;29;20448;-82
2023/06/17 04:39:56;;;;;;;5.70;4.00;;;14.70;97.30;;;;;;4942483;23;20518;-87
2023/06/17 04:42:22;;;;;;;5.33;4.40;;;14.70;97.30;;;;;;4945347;29;20466;-87
2023/06/17 04:44:48;;;;;;;10.57;4.97;;;14.70;97.30;;;;;;4945212;29;20555;-88
2023/06/17 04:47:19;;;;;;;2.97;2.80;;;14.70;97.30;;;;;;4947571;29;20422;-90
2023/06/17 04:49:47;;;;;;;3.83;3.57;;;14.80;97.30;;;;;;4946572;29;20438;-86
2023/06/17 04:52:13;;;;;;;5.17;4.87;;;14.80;97.30;;;;;;4945028;29;20917;-86
2023/06/17 04:54:39;;;;;;;11.30;5.87;;;14.80;97.30;;;;;;4943529;29;20956;-86
2023/06/17 04:57:05;;;;;;;8.70;4.63;;;14.80;97.30;;;;;;4942038;29;20430;-86
2023/06/17 04:59:31;;;;;;;8.27;4.20;;;14.80;97.30;;;;;;4942021;28;20443;-86
2023/06/17 05:01:57;;;;;;;4.57;3.77;;;14.90;97.30;;;;;;4944917;29;20466;-86
2023/06/17 05:04:22;;;;;;;3.23;2.50;;;14.80;97.30;;;;;;4942162;29;20187;-88
2023/06/17 05:06:48;;;;;;;7.80;4.47;;;14.90;97.30;;;;;;4941942;28;20727;-86
2023/06/17 05:09:13;;;;;;;6.50;4.20;;;14.90;97.30;;;;;;4942667;29;20336;-87
2023/06/17 05:11:40;;;;;;;7.50;3.73;;;14.90;97.30;;;;;;4943560;29;20191;-86
2023/06/17 05:14:06;;;;;;;9.40;4.77;;;14.90;97.30;;;;;;4943028;29;20179;-86
2023/06/17 05:16:32;;;;;;;4.17;3.50;;;14.90;97.30;;;;;;4944689;29;20433;-88
2023/06/17 05:18:57;;;;;;;5.27;3.20;;;14.90;97.30;;;;;;4941389;29;20467;-86
2023/06/17 05:21:23;;;;;;;10.03;5.43;;;14.80;97.30;;;;;;4944081;29;20708;-88
2023/06/17 05:23:50;;;;;;;3.60;2.90;;;14.90;97.30;;;;;;4945758;29;21708;-87
2023/06/17 05:26:15;;;;;;;3.80;2.63;;;14.90;97.30;;;;;;4943359;29;20179;-87
2023/06/17 05:28:41;;;;;;;2.97;2.47;;;15.00;97.30;;;;;;4944244;29;20485;-87
2023/06/17 05:31:06;;;;;;;6.53;4.47;;;15.10;97.30;;;;;;4940930;29;20289;-86
2023/06/17 05:33:32;;;;;;;6.70;3.50;;;15.10;97.30;;;;;;4940041;29;20234;-87
2023/06/17 05:36:00;;;;;;;4.40;4.10;;;15.20;97.30;;;;;;4943749;29;20179;-86
2023/06/17 05:38:27;;;;;;;3.93;2.73;;;15.20;97.30;;;;;;4941435;29;20199;-87
2023/06/17 05:40:52;;;;;;;4.43;3.90;;;15.20;97.30;;;;;;4946343;29;20463;-89
2023/06/17 05:43:18;;;;;;;9.53;3.30;;;15.30;97.30;;;;;;4947434;29;20771;-86
2023/06/17 05:45:44;;;;;;;11.50;4.93;;;15.30;97.30;;;;;;4945721;29;20193;-88
2023/06/17 05:48:10;;;;;;;4.77;3.77;;;15.30;97.30;;;;;;4949638;29;20571;-86
2023/06/17 05:50:35;;;;;;;5.23;3.97;;;15.40;97.30;;;;;;4945645;29;20521;-89
2023/06/17 05:53:01;;;;;;;7.07;5.47;;;15.40;97.30;;;;;;4944123;29;20195;-88
2023/06/17 05:55:26;;;;;;;4.90;3.10;;;15.40;97.30;;;;;;4944830;29;20218;-87
2023/06/17 05:57:52;;;;;;;3.93;3.00;;;15.50;97.30;;;;;;4947460;29;20260;-88
2023/06/17 06:00:18;;;;;;;2.90;2.70;;;15.50;97.30;;;;;;4946917;29;20211;-91
2023/06/17 06:02:44;;;;;;;10.03;4.40;;;15.50;97.30;;;;;;4944565;29;20216;-87
2023/06/17 06:05:10;;;;;;;9.80;4.87;;;15.60;97.30;;;;;;4942741;29;20529;-87
2023/06/17 06:07:35;;;;;;;4.43;2.83;;;15.60;97.30;;;;;;4947848;29;20701;-88
2023/06/17 06:10:06;;;;;;;9.50;3.87;;;15.60;97.30;;;;;;4945487;29;20214;-88
2023/06/17 06:12:31;;;;;;;9.40;4.70;;;15.70;97.30;;;;;;4945576;29;20184;-87
2023/06/17 06:14:57;;;;;;;5.97;4.00;;;15.70;97.30;;;;;;4947682;29;20482;-87
2023/06/17 06:17:23;;;;;;;6.77;5.13;;;15.80;97.30;;;;;;4944987;29;20708;-90
2023/06/17 06:19:50;;;;;;;23.33;6.60;;;15.80;97.30;;;;;;4945503;29;21022;-87
2023/06/17 06:22:15;;;;;;;26.63;5.10;;;15.90;97.30;;;;;;4945740;29;20820;-87
2023/06/17 06:24:41;;;;;;;5.63;3.27;;;16.00;97.30;;;;;;4945177;29;20507;-87
2023/06/17 06:27:06;;;;;;;7.37;4.80;;;16.10;97.30;;;;;;4947789;29;20213;-91
2023/06/17 06:29:32;;;;;;;9.50;5.50;;;16.20;97.30;;;;;;4945963;29;20297;-89
2023/06/17 06:31:57;;;;;;;10.10;6.70;;;16.20;97.30;;;;;;4949296;29;20282;-90
2023/06/17 06:34:23;;;;;;;3.80;2.70;;;16.30;97.30;;;;;;4947124;29;20253;-90
2023/06/17 06:36:48;;;;;;;7.57;5.23;;;16.30;97.30;;;;;;4952341;29;20183;-90
2023/06/17 06:39:15;;;;;;;6.30;3.73;;;16.30;97.30;;;;;;4946424;29;20199;-90
2023/06/17 06:41:41;;;;;;;16.23;5.23;;;16.40;97.30;;;;;;4945909;29;20219;-89
2023/06/17 06:44:06;;;;;;;9.27;6.13;;;16.40;97.30;;;;;;4939784;29;20435;-89
2023/06/17 06:46:33;;;;;;;24.53;5.97;;;16.40;97.30;;;;;;4943283;29;20222;-89
2023/06/17 06:48:59;;;;;;;7.93;5.57;;;16.40;97.30;;;;;;4945074;28;20190;-92
2023/06/17 06:51:24;;;;;;;7.07;4.63;;;16.40;97.30;;;;;;4940832;29;20447;-91
2023/06/17 06:53:50;;;;;;;13.93;5.40;;;16.40;97.30;;;;;;4944446;28;21829;-89
2023/06/17 06:56:15;;;;;;;7.90;5.07;;;16.40;97.30;;;;;;4945231;28;20180;-89
2023/06/17 06:58:41;;;;;;;10.47;4.90;;;16.50;97.30;;;;;;4945194;29;20196;-89
2023/06/17 07:01:06;;;;;;;8.83;5.53;;;16.40;97.30;;;;;;4945214;29;20265;-91
2023/06/17 07:03:32;;;;;;;14.70;4.80;;;16.50;97.30;;;;;;4943870;29;20219;-92
2023/06/17 07:05:58;;;;;;;44.60;6.33;;;16.50;97.30;;;;;;4946135;29;20164;-89
2023/06/17 07:08:26;;;;;;;10.10;7.67;;;16.50;97.30;;;;;;4945807;29;20238;-88
2023/06/17 07:10:52;;;;;;;8.03;5.63;;;16.50;97.30;;;;;;4944675;29;20229;-88
2023/06/17 07:13:18;;;;;;;10.30;6.30;;;16.50;97.30;;;;;;4945495;29;20454;-90
2023/06/17 07:15:44;;;;;;;11.67;6.57;;;16.50;97.30;;;;;;4945023;29;20180;-89
2023/06/17 07:18:11;;;;;;;9.37;6.97;;;16.50;97.30;;;;;;4945606;29;20230;-91
2023/06/17 07:20:37;;;;;;;7.27;6.37;;;16.50;97.30;;;;;;4940172;29;20455;-90
2023/06/17 07:23:02;;;;;;;11.13;7.87;;;16.60;97.30;;;;;;4942878;29;20467;-89
2023/06/17 07:25:28;;;;;;;6.00;5.53;;;16.60;97.30;;;;;;4945840;29;20511;-90
2023/06/17 07:27:56;;;;;;;12.63;8.27;;;16.70;97.30;;;;;;4942313;29;20279;-88
2023/06/17 07:30:22;;;;;;;24.23;7.70;;;16.80;97.30;;;;;;4943983;29;20310;-89
2023/06/17 07:32:48;;;;;;;6.47;4.70;;;16.80;97.30;;;;;;4944505;29;20675;-91
2023/06/17 07:35:14;;;;;;;15.30;9.20;;;16.90;97.30;;;;;;4946116;29;20683;-92
2023/06/17 07:37:39;;;;;;;8.53;5.67;;;17.00;97.30;;;;;;4943615;29;20187;-89
2023/06/17 07:40:06;;;;;;;10.07;6.50;;;17.00;97.30;;;;;;4948831;29;20285;-90
2023/06/17 07:42:31;;;;;;;11.10;5.93;;;17.10;97.30;;;;;;4942420;29;20252;-90
2023/06/17 07:44:57;;;;;;;16.60;7.57;;;17.20;97.30;;;;;;4950073;29;20465;-88
2023/06/17 07:47:23;;;;;;;17.67;6.47;;;17.30;97.30;;;;;;4946303;29;20202;-89
2023/06/17 07:49:49;;;;;;;10.10;6.77;;;17.40;97.30;;;;;;4947496;29;20213;-91
2023/06/17 07:52:14;;;;;;;9.03;6.30;;;17.50;97.30;;;;;;4946825;29;20228;-89
2023/06/17 07:54:41;;;;;;;36.17;7.50;;;17.50;97.30;;;;;;4948008;29;20187;-88
2023/06/17 07:57:06;;;;;;;8.20;6.20;;;17.60;97.30;;;;;;4947886;29;20546;-89
2023/06/17 07:59:32;;;;;;;11.67;6.03;;;17.60;97.30;;;;;;4940293;29;20454;-90
2023/06/17 08:01:57;;;;;;;10.03;5.40;;;17.70;97.30;;;;;;4944558;28;20211;-89
2023/06/17 08:04:23;;;;;;;7.40;5.80;;;17.70;97.30;;;;;;4948431;29;20190;-91
2023/06/17 08:06:49;;;;;;;6.93;5.93;;;17.80;97.30;;;;;;4940479;28;20215;-89
2023/06/17 08:09:14;;;;;;;14.53;8.53;;;17.80;97.30;;;;;;4939424;29;20192;-90
2023/06/17 08:11:40;;;;;;;20.57;7.33;;;17.90;97.30;;;;;;4939304;29;20434;-89
2023/06/17 08:14:05;;;;;;;12.63;7.90;;;17.90;97.30;;;;;;4943243;29;20199;-88
2023/06/17 08:16:31;;;;;;;15.83;7.67;;;18.00;97.30;;;;;;4948000;29;20586;-87
2023/06/17 08:18:56;;;;;;;16.00;8.00;;;18.10;97.30;;;;;;4944236;29;20303;-90
2023/06/17 08:21:22;;;;;;;6.90;4.37;;;18.10;97.30;;;;;;4945772;29;20693;-89
2023/06/17 08:23:50;;;;;;;13.20;7.37;;;18.20;97.30;;;;;;4943400;29;20195;-90
2023/06/17 08:26:15;;;;;;;15.20;7.53;;;18.30;97.30;;;;;;4938881;29;20210;-89
2023/06/17 08:28:41;;;;;;;11.07;6.10;;;18.40;97.30;;;;;;4945457;29;20430;-90
2023/06/17 08:31:07;;;;;;;11.47;5.80;;;18.40;97.30;;;;;;4943211;29;20287;-90
2023/06/17 08:33:32;;;;;;;6.63;5.20;;;18.40;97.30;;;;;;4942232;29;21075;-93
2023/06/17 08:35:58;;;;;;;11.10;5.53;;;18.50;97.30;;;;;;4942500;29;20183;-89
2023/06/17 08:38:23;;;;;;;23.17;4.80;;;18.60;97.30;;;;;;4945124;29;20180;-90
2023/06/17 08:40:49;;;;;;;7.07;6.67;;;18.70;97.30;;;;;;4946552;29;20230;-89
2023/06/17 08:43:19;;;;;;;10.27;7.13;;;18.70;97.30;;;;;;4954401;29;20223;-91
2023/06/17 08:45:48;;;;;;;13.70;7.70;;;18.80;97.30;;;;;;4960815;29;20190;-91
2023/06/17 08:48:14;;;;;;;18.93;7.43;;;18.80;97.30;;;;;;4960051;29;20435;-93
2023/06/17 08:50:41;;;;;;;6.73;6.33;;;18.80;97.30;;;;;;4949155;29;20443;-89
2023/06/17 08:53:07;;;;;;;9.57;7.00;;;18.80;97.30;;;;;;4940299;29;20758;-88
2023/06/17 08:55:33;;;;;;;35.33;7.80;;;18.90;97.30;;;;;;4946051;29;20844;-91
2023/06/17 08:58:00;;;;;;;7.80;5.77;;;18.90;97.30;;;;;;4942345;28;20941;-89
2023/06/17 09:00:25;;;;;;;10.13;7.93;;;18.90;97.30;;;;;;4945878;29;20994;-89
2023/06/17 09:02:54;;;;;;;16.00;7.10;;;19.00;97.30;;;;;;4937151;29;20474;-90
2023/06/17 09:05:19;;;;;;;15.17;6.50;;;19.10;97.30;;;;;;4943075;29;20180;-92
2023/06/17 09:07:45;;;;;;;6.57;4.17;;;19.10;97.30;;;;;;4943107;29;20457;-88
2023/06/17 09:10:14;;;;;;;9.00;4.43;;;19.20;97.30;;;;;;4940925;29;20578;-90
2023/06/17 09:12:40;;;;;;;8.17;3.80;;;19.30;97.30;;;;;;4944709;28;20434;-89
2023/06/17 09:15:15;;;;;;;13.53;5.83;;;19.40;97.30;;;;;;4946008;29;20885;-88
2023/06/17 09:17:44;;;;;;;7.93;5.10;;;19.50;97.30;;;;;;4946523;29;20214;-86
2023/06/17 09:20:12;;;;;;;4.00;3.57;;;19.60;97.30;;;;;;4946260;29;20443;-87
2023/06/17 09:22:40;;;;;;;8.00;4.70;;;19.80;97.30;;;;;;4949446;29;20446;-87
2023/06/17 09:25:11;;;;;;;6.13;4.17;;;19.90;97.30;;;;;;4945374;29;20469;-86
2023/06/17 09:27:43;;;;;;;6.67;5.60;;;20.00;97.30;;;;;;4944522;29;20517;-87
2023/06/17 09:30:09;;;;;;;4.80;4.50;;;20.10;97.30;;;;;;4943011;29;20519;-88
2023/06/17 09:32:42;;;;;;;6.13;4.77;;;20.10;97.30;;;;;;4942284;29;20430;-88
2023/06/17 09:35:14;;;;;;;5.00;4.17;;;20.10;97.30;;;;;;4941245;29;20537;-90
2023/06/17 09:37:44;;;;;;;7.53;4.40;;;20.10;97.30;;;;;;4942915;29;20447;-86
2023/06/17 09:40:10;;;;;;;3.73;3.50;;;20.10;97.30;;;;;;4951848;28;20474;-87
2023/06/17 09:42:37;;;;;;;5.60;4.20;;;20.10;97.30;;;;;;4941752;29;20470;-87
2023/06/17 09:45:11;;;;;;;5.60;5.40;;;20.20;97.30;;;;;;4946981;29;20430;-88
2023/06/17 09:47:37;;;;;;;9.63;5.60;;;20.30;97.30;;;;;;4947340;29;20415;-90
2023/06/17 09:50:12;;;;;;;6.80;5.33;;;20.30;97.30;;;;;;4947351;29;20450;-87
2023/06/17 09:52:38;;;;;;;4.70;3.13;;;20.40;97.30;;;;;;4946526;29;20477;-90
2023/06/17 09:55:05;;;;;;;9.27;5.13;;;20.40;97.30;;;;;;4943881;29;20434;-87
2023/06/17 09:57:31;;;;;;;5.20;3.80;;;20.50;97.30;;;;;;4947736;29;20176;-91
2023/06/17 10:00:00;;;;;;;5.93;3.90;;;20.50;97.20;;;;;;4944994;29;20454;-91
2023/06/17 10:02:26;;;;;;;9.33;5.10;;;20.50;97.20;;;;;;4948508;29;21017;-89
2023/06/17 10:04:52;;;;;;;6.57;4.37;;;20.60;97.30;;;;;;4947250;28;20507;-90
2023/06/17 10:07:53;;;;;;;;;;;;;;;;;;;;;
2023/06/17 10:10:40;;;;;;;3.80;3.60;;;20.70;97.10;;;;;;4950243;29;20549;-90
2023/06/17 10:13:09;;;;;;;4.90;3.83;;;20.70;97.20;;;;;;4943672;29;20944;-91
2023/06/17 10:15:41;;;;;;;6.10;5.20;;;20.80;96.40;;;;;;4956170;29;20835;-92
2023/06/17 10:18:23;;;;;;;5.20;3.60;;;20.80;95.90;;;;;;4945498;29;20451;-92
2023/06/17 10:21:01;;;;;;;5.63;4.37;;;20.90;95.70;;;;;;4953060;29;20470;-93
2023/06/17 10:23:30;;;;;;;6.50;3.10;;;20.90;94.90;;;;;;4951510;28;20459;-92
2023/06/17 10:25:59;;;;;;;4.00;3.00;;;21.00;95.10;;;;;;4948703;29;21099;-93
2023/06/17 10:28:59;;;;;;;4.43;3.20;;;21.10;94.30;;;;;;4948933;29;20418;-91
2023/06/17 10:31:30;;;;;;;4.10;3.30;;;21.30;93.90;;;;;;4947097;29;20510;-89
2023/06/17 10:34:03;;;;;;;5.30;4.30;;;21.60;93.20;;;;;;4951610;29;20434;-92
2023/06/17 10:36:41;;;;;;;6.17;4.03;;;21.70;92.20;;;;;;4946487;29;20446;-92
2023/06/17 10:39:11;;;;;;;4.57;2.90;;;21.70;90.70;;;;;;4954908;29;20948;-91
2023/06/17 10:41:40;;;;;;;2.57;2.37;;;21.60;91.40;;;;;;4964627;23;20506;-86
2023/06/17 10:44:38;;;;;;;6.50;3.80;;;21.60;91.00;;;;;;4943565;29;20518;-86
2023/06/17 10:47:18;;;;;;;6.83;3.23;;;21.60;91.10;;;;;;4949576;29;20425;-86
2023/06/17 10:49:43;;;;;;;4.30;3.57;;;21.70;91.30;;;;;;4936743;29;20419;-85
2023/06/17 10:52:14;;;;;;;9.77;3.70;;;21.90;90.60;;;;;;4949102;28;20438;-87
2023/06/17 10:54:52;;;;;;;4.70;3.60;;;22.00;90.40;;;;;;4933460;29;20354;-84
2023/06/17 10:57:29;;;;;;;7.93;3.50;;;22.00;90.70;;;;;;4930739;29;20423;-86
2023/06/17 10:59:57;;;;;;;4.00;3.60;;;22.00;90.70;;;;;;4930687;29;20530;-84
2023/06/17 11:02:23;;;;;;;7.00;2.90;;;22.00;90.60;;;;;;4935017;29;20475;-84
2023/06/17 11:04:48;;;;;;;4.30;3.90;;;22.00;90.50;;;;;;4931923;29;20458;-86
2023/06/17 11:07:14;;;;;;;5.17;3.57;;;22.10;89.80;;;;;;4932890;29;20192;-86
2023/06/17 11:09:39;;;;;;;3.20;3.00;;;22.20;89.20;;;;;;4932543;29;20297;-86
2023/06/17 11:12:07;;;;;;;5.10;3.03;;;22.20;89.20;;;;;;4933993;29;20709;-84
2023/06/17 11:14:34;;;;;;;5.53;3.80;;;22.40;88.70;;;;;;4931417;29;20195;-85
2023/06/17 11:16:59;;;;;;;9.47;3.00;;;22.50;88.60;;;;;;4931525;29;20930;-84
2023/06/17 11:19:25;;;;;;;6.20;4.80;;;22.50;89.00;;;;;;4932047;29;20431;-86
2023/06/17 11:22:01;;;;;;;6.17;4.40;;;22.60;88.90;;;;;;4933532;29;20278;-83
2023/06/17 11:24:27;;;;;;;4.90;2.87;;;22.60;86.70;;;;;;4933707;29;20198;-86
2023/06/17 11:26:54;;;;;;;4.77;3.60;;;22.70;87.00;;;;;;4925318;29;20423;-86
2023/06/17 11:29:19;;;;;;;2.70;2.57;;;22.80;86.40;;;;;;4933597;29;20670;-84
2023/06/17 11:31:45;;;;;;;2.83;2.67;;;22.90;86.20;;;;;;4933657;29;20530;-83
2023/06/17 11:34:12;;;;;;;5.20;2.07;;;23.00;86.10;;;;;;4934228;29;20275;-83
2023/06/17 11:36:38;;;;;;;5.10;3.90;;;23.10;85.70;;;;;;4932953;29;20192;-86
2023/06/17 11:39:04;;;;;;;2.27;1.87;;;23.10;85.40;;;;;;4925666;29;20435;-86
2023/06/17 11:41:31;;;;;;;3.03;2.30;;;23.10;85.00;;;;;;4933514;29;20550;-84
2023/06/17 11:43:57;;;;;;;2.47;2.27;;;23.10;85.50;;;;;;4938724;29;20215;-86
2023/06/17 11:46:23;;;;;;;6.57;2.90;;;23.10;86.30;;;;;;4940261;29;20442;-85
2023/06/17 11:48:49;;;;;;;5.20;3.20;;;23.20;86.30;;;;;;4942867;29;20431;-85
2023/06/17 11:51:18;;;;;;;5.07;2.53;;;23.30;85.60;;;;;;4936736;29;20870;-86
2023/06/17 11:53:48;;;;;;;5.37;4.27;;;23.40;85.00;;;;;;4932997;29;20180;-86
2023/06/17 11:56:21;;;;;;;4.53;3.27;;;23.50;84.90;;;;;;4930896;29;20518;-85
2023/06/17 11:58:51;;;;;;;3.30;2.87;;;23.50;84.90;;;;;;4941194;29;20430;-86
2023/06/17 12:01:16;;;;;;;3.80;3.60;;;23.50;84.30;;;;;;4940363;29;20483;-85
2023/06/17 12:03:48;;;;;;;3.93;2.70;;;23.50;84.60;;;;;;4938591;29;20419;-85
2023/06/17 12:06:18;;;;;;;2.20;1.83;;;23.60;85.00;;;;;;4933444;29;20545;-83
2023/06/17 12:08:44;;;;;;;5.23;3.60;;;23.70;83.40;;;;;;4932830;29;20838;-82
2023/06/17 12:11:25;;;;;;;3.77;2.97;;;23.80;82.70;;;;;;4932174;29;20537;-85
2023/06/17 12:13:52;;;;;;;3.07;2.60;;;23.90;84.60;;;;;;4931571;29;20263;-83
2023/06/17 12:16:33;;;;;;;3.50;2.80;;;24.10;83.80;;;;;;4926370;29;20855;-85
2023/06/17 12:19:07;;;;;;;5.37;3.30;;;24.20;82.80;;;;;;4932157;29;20637;-83
2023/06/17 12:21:34;;;;;;;6.37;4.10;;;24.30;82.30;;;;;;4941815;29;20467;-85
2023/06/17 12:24:02;;;;;;;4.17;3.13;;;24.30;81.30;;;;;;4932801;29;20428;-85
2023/06/17 12:26:27;;;;;;;2.47;2.10;;;24.30;82.50;;;;;;4930539;29;20428;-83
2023/06/17 12:28:54;;;;;;;3.13;2.57;;;24.40;82.40;;;;;;4932017;29;20420;-83
2023/06/17 12:31:20;;;;;;;2.90;2.33;;;24.50;80.80;;;;;;4926007;29;20208;-85
2023/06/17 12:33:46;;;;;;;4.37;2.90;;;24.40;81.00;;;;;;4933695;29;20435;-85
2023/06/17 12:36:12;;;;;;;3.70;2.53;;;24.40;80.70;;;;;;4932350;29;20432;-83
2023/06/17 12:38:39;;;;;;;10.37;2.80;;;24.40;81.20;;;;;;4933049;29;20427;-83
2023/06/17 12:41:05;;;;;;;1.90;1.80;;;24.40;80.90;;;;;;4935096;29;20439;-85
2023/06/17 12:43:30;;;;;;;3.83;2.70;;;24.50;81.80;;;;;;4935878;29;20443;-85
2023/06/17 12:45:58;;;;;;;3.23;2.13;;;24.60;83.10;;;;;;4931240;29;20420;-85
2023/06/17 12:48:27;;;;;;;3.60;2.83;;;24.70;81.70;;;;;;4929094;29;20263;-86
2023/06/17 12:50:53;;;;;;;3.43;2.87;;;24.60;81.10;;;;;;4931220;29;20427;-85
2023/06/17 12:53:19;;;;;;;3.10;2.40;;;24.80;81.50;;;;;;4933759;29;20468;-85
2023/06/17 12:55:44;;;;;;;4.30;2.90;;;24.90;82.20;;;;;;4936893;29;20423;-86
2023/06/17 12:58:10;;;;;;;4.30;2.90;;;25.00;81.40;;;;;;4935043;29;20231;-85
2023/06/17 13:00:36;;;;;;;6.60;4.13;;;25.00;80.40;;;;;;4932094;29;20208;-86
2023/06/17 13:03:02;;;;;;;9.40;3.60;;;25.00;81.70;;;;;;4932946;29;20254;-85
2023/06/17 13:05:30;;;;;;;3.10;1.97;;;25.00;79.80;;;;;;4932714;29;20459;-82
2023/06/17 13:07:56;;;;;;;3.50;2.63;;;25.10;80.70;;;;;;4933570;29;20180;-83
2023/06/17 13:10:23;;;;;;;2.73;2.53;;;25.30;80.80;;;;;;4931691;29;20430;-83
2023/06/17 13:12:48;;;;;;;2.20;2.00;;;25.50;80.90;;;;;;4931000;29;20214;-86
2023/06/17 13:15:14;;;;;;;3.33;2.93;;;25.60;77.50;;;;;;4933515;29;20419;-83
2023/06/17 13:17:41;;;;;;;2.93;2.73;;;25.50;77.10;;;;;;4944703;29;20275;-85
2023/06/17 13:20:09;;;;;;;2.60;2.40;;;25.50;77.50;;;;;;4932107;29;20212;-86
2023/06/17 13:22:36;;;;;;;2.20;2.00;;;25.60;77.70;;;;;;4932673;29;20487;-86
2023/06/17 13:25:02;;;;;;;2.93;2.13;;;25.60;77.00;;;;;;4931156;29;20991;-85
2023/06/17 13:27:28;;;;;;;2.83;2.63;;;25.70;77.80;;;;;;4932202;29;20806;-83
2023/06/17 13:29:54;;;;;;;3.60;2.53;;;25.80;76.60;;;;;;4932161;29;20582;-86
2023/06/17 13:32:20;;;;;;;3.17;2.10;;;25.80;77.60;;;;;;4930554;29;20542;-84
2023/06/17 13:34:46;;;;;;;2.70;1.93;;;25.90;76.70;;;;;;4928213;29;20180;-86
2023/06/17 13:37:11;;;;;;;3.63;2.97;;;26.00;75.10;;;;;;4923086;29;20191;-86
2023/06/17 13:39:37;;;;;;;1.80;1.70;;;26.10;75.50;;;;;;4924762;29;20275;-86
2023/06/17 13:42:07;;;;;;;2.77;2.37;;;26.10;75.60;;;;;;4926953;29;20262;-88
2023/06/17 13:44:33;;;;;;;3.47;2.10;;;26.10;75.00;;;;;;4925652;29;20200;-88
2023/06/17 13:46:58;;;;;;;4.43;3.00;;;26.10;75.20;;;;;;4927053;29;20521;-85
2023/06/17 13:49:24;;;;;;;2.50;2.00;;;26.10;75.50;;;;;;4923540;29;20460;-85
2023/06/17 13:51:50;;;;;;;4.57;2.27;;;26.10;74.40;;;;;;4923186;29;20208;-86
2023/06/17 13:54:19;;;;;;;2.20;1.97;;;26.20;74.30;;;;;;4924787;29;20990;-86
2023/06/17 13:56:44;;;;;;;2.30;2.10;;;26.30;74.40;;;;;;4922979;29;20430;-87
2023/06/17 13:59:11;;;;;;;4.80;2.40;;;26.30;74.70;;;;;;4926448;29;20408;-85
2023/06/17 14:01:36;;;;;;;2.50;2.30;;;26.40;74.60;;;;;;4930554;29;21826;-86
2023/06/17 14:04:02;;;;;;;3.13;2.40;;;26.40;74.60;;;;;;4929164;29;21207;-86
2023/06/17 14:06:27;;;;;;;3.80;2.90;;;26.40;74.00;;;;;;4928715;29;20184;-86
2023/06/17 14:08:53;;;;;;;2.37;2.17;;;26.40;73.80;;;;;;4927366;29;21448;-86
2023/06/17 14:11:20;;;;;;;5.00;2.73;;;26.40;72.80;;;;;;4928119;29;20314;-86
2023/06/17 14:13:46;;;;;;;2.93;2.53;;;26.40;73.60;;;;;;4922469;29;20486;-88
2023/06/17 14:16:11;;;;;;;3.10;1.90;;;26.40;73.40;;;;;;4925129;29;21114;-86
2023/06/17 14:18:37;;;;;;;4.63;2.60;;;26.40;73.40;;;;;;4923726;29;20201;-87
2023/06/17 14:21:02;;;;;;;4.87;3.10;;;26.40;72.90;;;;;;4919260;29;20240;-88
2023/06/17 14:23:28;;;;;;;5.13;2.67;;;26.40;73.10;;;;;;4925333;29;20658;-86
2023/06/17 14:25:53;;;;;;;1.77;1.67;;;26.40;74.20;;;;;;4925100;29;20180;-86
2023/06/17 14:28:19;;;;;;;2.17;2.00;;;26.50;73.60;;;;;;4921854;29;20179;-86
2023/06/17 14:30:45;;;;;;;2.77;2.00;;;26.50;72.60;;;;;;4919698;29;20264;-86
2023/06/17 14:33:10;;;;;;;2.10;1.70;;;26.50;73.00;;;;;;4928812;29;20184;-87
2023/06/17 14:35:36;;;;;;;2.13;1.50;;;26.60;73.10;;;;;;4928626;29;20274;-88
2023/06/17 14:38:01;;;;;;;2.40;1.53;;;26.70;73.40;;;;;;4922236;29;20215;-88
2023/06/17 14:40:27;;;;;;;6.93;1.60;;;26.80;72.90;;;;;;4924442;29;20298;-87
2023/06/17 14:42:52;;;;;;;2.97;2.40;;;26.90;72.80;;;;;;4927732;29;20358;-87
2023/06/17 14:45:18;;;;;;;2.23;1.50;;;26.90;71.60;;;;;;4924730;29;20202;-88
2023/06/17 14:47:44;;;;;;;2.37;1.73;;;26.90;71.80;;;;;;4925907;29;20190;-87
2023/06/17 14:50:11;;;;;;;2.10;1.77;;;27.00;72.20;;;;;;4937167;29;20184;-87
2023/06/17 14:52:36;;;;;;;3.47;2.17;;;27.10;72.40;;;;;;4922220;29;20479;-88
2023/06/17 14:55:03;;;;;;;3.37;2.10;;;27.20;72.10;;;;;;4923575;29;20538;-87
2023/06/17 14:57:28;;;;;;;2.83;1.73;;;27.30;72.00;;;;;;4922942;29;20349;-86
2023/06/17 14:59:54;;;;;;;1.60;1.40;;;27.30;71.20;;;;;;4945293;29;20519;-87
2023/06/17 15:02:30;;;;;;;1.77;1.67;;;27.30;71.30;;;;;;4925676;29;20216;-83
2023/06/17 15:04:55;;;;;;;1.80;1.73;;;27.40;71.20;;;;;;4928776;29;20466;-84
2023/06/17 15:07:20;;;;;;;1.53;1.47;;;27.30;72.70;;;;;;4927857;29;20423;-88
2023/06/17 15:09:46;;;;;;;5.17;2.30;;;27.30;74.40;;;;;;4927696;29;20234;-86
2023/06/17 15:12:14;;;;;;;4.50;2.27;;;27.30;75.40;;;;;;4923616;29;20580;-86
2023/06/17 15:14:40;;;;;;;4.33;3.00;;;27.30;75.10;;;;;;4928333;29;20751;-86
2023/06/17 15:17:06;;;;;;;10.00;2.40;;;27.40;75.70;;;;;;4928848;29;20420;-87
2023/06/17 15:19:32;;;;;;;3.43;2.47;;;27.40;75.00;;;;;;4923155;29;20433;-84
2023/06/17 15:21:57;;;;;;;3.80;2.17;;;27.20;75.00;;;;;;4925377;29;20467;-84
2023/06/17 15:24:23;;;;;;;2.40;2.23;;;27.10;76.30;;;;;;4925884;29;20215;-85
2023/06/17 15:26:48;;;;;;;3.07;1.60;;;27.00;76.00;;;;;;4924602;29;20188;-86
2023/06/17 15:29:15;;;;;;;5.53;2.50;;;26.80;75.70;;;;;;4927368;29;20184;-84
2023/06/17 15:31:41;;;;;;;3.93;3.03;;;26.40;76.00;;;;;;4925091;29;20223;-85
2023/06/17 15:34:07;;;;;;;3.40;2.37;;;26.10;76.60;;;;;;4928099;29;20910;-85
2023/06/17 15:36:32;;;;;;;3.63;2.57;;;25.70;77.30;;;;;;4924130;29;20672;-86
2023/06/17 15:39:01;;;;;;;3.27;2.87;;;25.40;77.90;;;;;;4925738;29;20227;-85
2023/06/17 15:41:27;;;;;;;1.87;1.67;;;25.30;78.80;;;;;;4929142;29;20364;-82
2023/06/17 15:43:53;;;;;;;4.00;2.27;;;25.30;78.60;;;;;;4931084;29;20870;-85
2023/06/17 15:46:20;;;;;;;6.87;2.63;;;25.50;79.30;;;;;;4927655;29;20184;-85
2023/06/17 15:48:45;;;;;;;2.60;2.27;;;25.70;78.60;;;;;;4919458;29;20947;-86
2023/06/17 15:51:11;;;;;;;3.70;3.50;;;25.90;78.60;;;;;;4923430;29;20443;-86
2023/06/17 15:53:36;;;;;;;3.07;2.20;;;26.00;78.50;;;;;;4926912;29;20176;-86
2023/06/17 15:56:02;;;;;;;3.67;3.00;;;26.10;78.90;;;;;;4923144;29;20416;-86
2023/06/17 15:58:27;;;;;;;2.20;2.07;;;26.20;79.10;;;;;;4923085;29;20227;-86
2023/06/17 16:00:53;;;;;;;3.23;2.37;;;26.20;78.20;;;;;;4924177;29;20196;-86
2023/06/17 16:03:25;;;;;;;1.87;1.87;;;26.20;78.50;;;;;;4923377;29;20210;-85
2023/06/17 16:05:50;;;;;;;2.23;2.03;;;26.30;78.50;;;;;;4921850;29;20658;-86
2023/06/17 16:08:16;;;;;;;5.47;3.07;;;26.40;78.40;;;;;;4927289;29;20439;-86
2023/06/17 16:10:41;;;;;;;2.47;2.30;;;26.40;78.20;;;;;;4923641;29;20176;-86
2023/06/17 16:13:06;;;;;;;3.90;2.43;;;26.40;78.40;;;;;;4924837;29;20721;-85
2023/06/17 16:15:32;;;;;;;4.83;3.67;;;26.40;78.50;;;;;;4919991;29;20183;-86
2023/06/17 16:17:58;;;;;;;3.40;2.10;;;26.30;78.70;;;;;;4921671;29;20595;-86
2023/06/17 16:20:24;;;;;;;1.93;1.83;;;26.10;78.70;;;;;;4923017;29;20346;-84
2023/06/17 16:22:50;;;;;;;2.90;2.60;;;26.10;78.80;;;;;;4921300;29;20537;-86
2023/06/17 16:25:15;;;;;;;1.70;1.60;;;26.10;79.20;;;;;;4925814;29;20208;-85
2023/06/17 16:27:41;;;;;;;4.10;2.30;;;25.90;79.30;;;;;;4924617;29;20181;-86
2023/06/17 16:30:07;;;;;;;2.43;2.23;;;25.80;78.80;;;;;;4923327;29;20175;-86
2023/06/17 16:32:33;;;;;;;4.13;2.30;;;25.80;79.40;;;;;;4917343;29;20758;-85
2023/06/17 16:34:58;;;;;;;5.83;2.20;;;25.80;80.20;;;;;;4923361;29;20862;-88
2023/06/17 16:37:24;;;;;;;2.60;2.20;;;25.90;79.70;;;;;;4920456;29;20189;-84
2023/06/17 16:39:50;;;;;;;2.90;2.47;;;26.00;79.20;;;;;;4920819;29;20180;-85
2023/06/17 16:42:17;;;;;;;3.20;2.30;;;26.10;78.40;;;;;;4920674;29;20239;-86
2023/06/17 16:44:42;;;;;;;2.90;2.70;;;25.90;78.60;;;;;;4923227;29;20394;-86